sensor_id;sensor_type;location;lat;lon;timestamp;temperature;humidity
35692;DHT22;26978;44.830;-0.674;2023-05-14T00:01:57;13.80;99.90
35692;DHT22;26978;44.830;-0.674;2023-05-14T00:04:22;13.80;99.90
35692;DHT22;26978;44.830;-0.674;2023-05-14T00:06:48;13.70;99.90
35692;DHT22;26978;44.830;-0.674;2023-05-14T00:09:14;13.70;99.90
35692;DHT22;26978;44.830;-0.674;2023-05-14T00:11:39;13.70;99.90
35692;DHT22;26978;44.830;-0.674;2023-05-14T00:14:05;13.70;99.90
35692;DHT22;26978;44.830;-0.674;2023-05-14T00:16:31;13.70;99.90
35692;DHT22;26978;44.830;-0.674;2023-05-14T00:18:56;13.70;99.90
35692;DHT22;26978;44.830;-0.674;2023-05-14T00:21:22;13.70;99.90
35692;DHT22;26978;44.830;-0.674;2023-05-14T00:23:48;13.70;99.90
35692;DHT22;26978;44.830;-0.674;2023-05-14T00:26:13;13.60;99.90
35692;DHT22;26978;44.830;-0.674;2023-05-14T00:28:39;13.60;99.90
35692;DHT22;26978;44.830;-0.674;2023-05-14T00:31:05;13.60;99.90
35692;DHT22;26978;44.830;-0.674;2023-05-14T00:33:30;13.50;99.90
35692;DHT22;26978;44.830;-0.674;2023-05-14T00:35:56;13.50;99.90
35692;DHT22;26978;44.830;-0.674;2023-05-14T00:38:22;13.50;99.90
35692;DHT22;26978;44.830;-0.674;2023-05-14T00:40:48;13.50;99.90
35692;DHT22;26978;44.830;-0.674;2023-05-14T00:43:22;13.50;99.90
35692;DHT22;26978;44.830;-0.674;2023-05-14T00:45:52;13.50;99.90
35692;DHT22;26978;44.830;-0.674;2023-05-14T00:48:19;13.50;99.90
35692;DHT22;26978;44.830;-0.674;2023-05-14T00:50:45;13.50;99.90
35692;DHT22;26978;44.830;-0.674;2023-05-14T00:53:11;13.50;99.90
35692;DHT22;26978;44.830;-0.674;2023-05-14T00:55:39;13.50;99.90
35692;DHT22;26978;44.830;-0.674;2023-05-14T00:58:10;13.50;99.90
35692;DHT22;26978;44.830;-0.674;2023-05-14T01:00:37;13.50;99.90
35692;DHT22;26978;44.830;-0.674;2023-05-14T01:03:03;13.50;99.90
35692;DHT22;26978;44.830;-0.674;2023-05-14T01:10:50;13.50;99.90
35692;DHT22;26978;44.830;-0.674;2023-05-14T01:13:38;13.50;99.90
35692;DHT22;26978;44.830;-0.674;2023-05-14T01:16:12;13.40;99.90
35692;DHT22;26978;44.830;-0.674;2023-05-14T01:18:39;13.40;99.90
35692;DHT22;26978;44.830;-0.674;2023-05-14T01:23:49;13.50;99.90
35692;DHT22;26978;44.830;-0.674;2023-05-14T01:26:14;13.40;99.90
35692;DHT22;26978;44.830;-0.674;2023-05-14T01:28:40;13.40;99.90
35692;DHT22;26978;44.830;-0.674;2023-05-14T01:31:13;13.40;99.90
35692;DHT22;26978;44.830;-0.674;2023-05-14T01:33:41;13.40;99.90
35692;DHT22;26978;44.830;-0.674;2023-05-14T01:36:08;13.40;99.90
35692;DHT22;26978;44.830;-0.674;2023-05-14T01:38:34;13.50;99.90
35692;DHT22;26978;44.830;-0.674;2023-05-14T01:41:01;13.40;99.90
35692;DHT22;26978;44.830;-0.674;2023-05-14T01:43:27;13.50;99.90
35692;DHT22;26978;44.830;-0.674;2023-05-14T01:45:53;13.40;99.90
35692;DHT22;26978;44.830;-0.674;2023-05-14T01:48:20;13.40;99.90
35692;DHT22;26978;44.830;-0.674;2023-05-14T01:50:45;13.40;99.90
35692;DHT22;26978;44.830;-0.674;2023-05-14T01:53:11;13.40;99.90
35692;DHT22;26978;44.830;-0.674;2023-05-14T01:55:37;13.40;99.90
35692;DHT22;26978;44.830;-0.674;2023-05-14T01:58:03;13.40;99.90
35692;DHT22;26978;44.830;-0.674;2023-05-14T02:00:28;13.30;99.90
35692;DHT22;26978;44.830;-0.674;2023-05-14T02:02:54;13.30;99.90
35692;DHT22;26978;44.830;-0.674;2023-05-14T02:05:20;13.30;99.90
35692;DHT22;26978;44.830;-0.674;2023-05-14T02:07:46;13.30;99.90
35692;DHT22;26978;44.830;-0.674;2023-05-14T02:10:11;13.30;99.90
35692;DHT22;26978;44.830;-0.674;2023-05-14T02:12:37;13.30;99.90
35692;DHT22;26978;44.830;-0.674;2023-05-14T02:15:03;13.30;99.90
35692;DHT22;26978;44.830;-0.674;2023-05-14T02:17:29;13.30;99.90
35692;DHT22;26978;44.830;-0.674;2023-05-14T02:19:54;13.30;99.90
35692;DHT22;26978;44.830;-0.674;2023-05-14T02:22:20;13.30;99.90
35692;DHT22;26978;44.830;-0.674;2023-05-14T02:24:46;13.20;99.90
35692;DHT22;26978;44.830;-0.674;2023-05-14T02:27:11;13.30;99.90
35692;DHT22;26978;44.830;-0.674;2023-05-14T02:29:38;13.20;99.90
35692;DHT22;26978;44.830;-0.674;2023-05-14T02:32:04;13.20;99.90
35692;DHT22;26978;44.830;-0.674;2023-05-14T02:34:29;13.20;99.90
35692;DHT22;26978;44.830;-0.674;2023-05-14T02:36:57;13.20;99.90
35692;DHT22;26978;44.830;-0.674;2023-05-14T02:39:23;13.20;99.90
35692;DHT22;26978;44.830;-0.674;2023-05-14T02:41:49;13.20;99.90
35692;DHT22;26978;44.830;-0.674;2023-05-14T02:44:14;13.20;99.90
35692;DHT22;26978;44.830;-0.674;2023-05-14T02:46:40;13.20;99.90
35692;DHT22;26978;44.830;-0.674;2023-05-14T02:49:06;13.20;99.90
35692;DHT22;26978;44.830;-0.674;2023-05-14T02:51:31;13.20;99.90
35692;DHT22;26978;44.830;-0.674;2023-05-14T02:53:57;13.10;99.90
35692;DHT22;26978;44.830;-0.674;2023-05-14T02:56:22;13.10;99.90
35692;DHT22;26978;44.830;-0.674;2023-05-14T02:58:48;13.10;99.90
35692;DHT22;26978;44.830;-0.674;2023-05-14T03:01:14;13.00;99.90
35692;DHT22;26978;44.830;-0.674;2023-05-14T03:03:39;13.00;99.90
35692;DHT22;26978;44.830;-0.674;2023-05-14T03:06:05;12.90;99.90
35692;DHT22;26978;44.830;-0.674;2023-05-14T03:08:31;12.90;99.90
35692;DHT22;26978;44.830;-0.674;2023-05-14T03:10:56;12.90;99.90
35692;DHT22;26978;44.830;-0.674;2023-05-14T03:13:22;12.80;99.90
35692;DHT22;26978;44.830;-0.674;2023-05-14T03:15:47;12.80;99.90
35692;DHT22;26978;44.830;-0.674;2023-05-14T03:18:13;12.70;99.90
35692;DHT22;26978;44.830;-0.674;2023-05-14T03:20:39;12.70;99.90
35692;DHT22;26978;44.830;-0.674;2023-05-14T03:23:05;12.60;99.90
35692;DHT22;26978;44.830;-0.674;2023-05-14T03:25:31;12.60;99.90
35692;DHT22;26978;44.830;-0.674;2023-05-14T03:27:57;12.50;99.90
35692;DHT22;26978;44.830;-0.674;2023-05-14T03:30:22;12.50;99.90
35692;DHT22;26978;44.830;-0.674;2023-05-14T03:32:49;12.40;99.90
35692;DHT22;26978;44.830;-0.674;2023-05-14T03:35:14;12.40;99.90
35692;DHT22;26978;44.830;-0.674;2023-05-14T03:37:40;12.40;99.90
35692;DHT22;26978;44.830;-0.674;2023-05-14T03:40:06;12.30;99.90
35692;DHT22;26978;44.830;-0.674;2023-05-14T03:42:32;12.30;99.90
35692;DHT22;26978;44.830;-0.674;2023-05-14T03:44:57;12.20;99.90
35692;DHT22;26978;44.830;-0.674;2023-05-14T03:47:23;12.20;99.90
35692;DHT22;26978;44.830;-0.674;2023-05-14T03:49:49;12.30;99.90
35692;DHT22;26978;44.830;-0.674;2023-05-14T03:52:14;12.20;99.90
35692;DHT22;26978;44.830;-0.674;2023-05-14T03:54:40;12.20;99.90
35692;DHT22;26978;44.830;-0.674;2023-05-14T03:57:06;12.10;99.90
35692;DHT22;26978;44.830;-0.674;2023-05-14T03:59:32;12.10;99.90
35692;DHT22;26978;44.830;-0.674;2023-05-14T04:01:57;12.10;99.90
35692;DHT22;26978;44.830;-0.674;2023-05-14T04:04:23;12.20;99.90
35692;DHT22;26978;44.830;-0.674;2023-05-14T04:06:49;12.20;99.90
35692;DHT22;26978;44.830;-0.674;2023-05-14T04:09:14;12.20;99.90
35692;DHT22;26978;44.830;-0.674;2023-05-14T04:11:40;12.10;99.90
35692;DHT22;26978;44.830;-0.674;2023-05-14T04:14:06;12.10;99.90
35692;DHT22;26978;44.830;-0.674;2023-05-14T04:16:32;12.10;99.90
35692;DHT22;26978;44.830;-0.674;2023-05-14T04:18:58;12.10;99.90
35692;DHT22;26978;44.830;-0.674;2023-05-14T04:21:24;12.10;99.90
35692;DHT22;26978;44.830;-0.674;2023-05-14T04:23:50;12.00;99.90
35692;DHT22;26978;44.830;-0.674;2023-05-14T04:26:16;12.10;99.90
35692;DHT22;26978;44.830;-0.674;2023-05-14T04:28:41;12.10;99.90
35692;DHT22;26978;44.830;-0.674;2023-05-14T04:31:07;12.00;99.90
35692;DHT22;26978;44.830;-0.674;2023-05-14T04:33:32;12.00;99.90
35692;DHT22;26978;44.830;-0.674;2023-05-14T04:35:58;12.00;99.90
35692;DHT22;26978;44.830;-0.674;2023-05-14T04:38:24;12.00;99.90
35692;DHT22;26978;44.830;-0.674;2023-05-14T04:40:50;12.00;99.90
35692;DHT22;26978;44.830;-0.674;2023-05-14T04:43:15;11.90;99.90
35692;DHT22;26978;44.830;-0.674;2023-05-14T04:45:41;11.90;99.90
35692;DHT22;26978;44.830;-0.674;2023-05-14T04:48:07;11.90;99.90
35692;DHT22;26978;44.830;-0.674;2023-05-14T04:50:33;11.90;99.90
35692;DHT22;26978;44.830;-0.674;2023-05-14T04:52:59;11.90;99.90
35692;DHT22;26978;44.830;-0.674;2023-05-14T04:55:25;11.90;99.90
35692;DHT22;26978;44.830;-0.674;2023-05-14T04:57:51;11.90;99.90
35692;DHT22;26978;44.830;-0.674;2023-05-14T05:00:17;11.90;99.90
35692;DHT22;26978;44.830;-0.674;2023-05-14T05:02:43;11.80;99.90
35692;DHT22;26978;44.830;-0.674;2023-05-14T05:05:09;11.80;99.90
35692;DHT22;26978;44.830;-0.674;2023-05-14T05:07:35;11.80;99.90
35692;DHT22;26978;44.830;-0.674;2023-05-14T05:10:01;11.80;99.90
35692;DHT22;26978;44.830;-0.674;2023-05-14T05:12:26;11.70;99.90
35692;DHT22;26978;44.830;-0.674;2023-05-14T05:14:55;11.70;99.90
35692;DHT22;26978;44.830;-0.674;2023-05-14T05:17:21;11.80;99.90
35692;DHT22;26978;44.830;-0.674;2023-05-14T05:19:47;11.80;99.90
35692;DHT22;26978;44.830;-0.674;2023-05-14T05:22:13;11.70;99.90
35692;DHT22;26978;44.830;-0.674;2023-05-14T05:24:39;11.70;99.90
35692;DHT22;26978;44.830;-0.674;2023-05-14T05:27:04;11.80;99.90
35692;DHT22;26978;44.830;-0.674;2023-05-14T05:29:30;11.90;99.90
35692;DHT22;26978;44.830;-0.674;2023-05-14T05:31:56;11.90;99.90
35692;DHT22;26978;44.830;-0.674;2023-05-14T05:34:22;11.90;99.90
35692;DHT22;26978;44.830;-0.674;2023-05-14T05:36:48;11.90;99.90
35692;DHT22;26978;44.830;-0.674;2023-05-14T05:39:13;12.00;99.90
35692;DHT22;26978;44.830;-0.674;2023-05-14T05:41:39;12.10;99.90
35692;DHT22;26978;44.830;-0.674;2023-05-14T05:44:05;12.20;99.90
35692;DHT22;26978;44.830;-0.674;2023-05-14T05:46:31;12.20;99.90
35692;DHT22;26978;44.830;-0.674;2023-05-14T05:48:56;12.30;99.90
35692;DHT22;26978;44.830;-0.674;2023-05-14T05:51:22;12.30;99.90
35692;DHT22;26978;44.830;-0.674;2023-05-14T05:53:47;12.30;99.90
35692;DHT22;26978;44.830;-0.674;2023-05-14T05:56:13;12.40;99.90
35692;DHT22;26978;44.830;-0.674;2023-05-14T05:58:39;12.40;99.90
35692;DHT22;26978;44.830;-0.674;2023-05-14T06:01:04;12.60;99.90
35692;DHT22;26978;44.830;-0.674;2023-05-14T06:03:31;12.60;99.90
35692;DHT22;26978;44.830;-0.674;2023-05-14T06:05:56;12.60;99.90
35692;DHT22;26978;44.830;-0.674;2023-05-14T06:08:22;12.60;99.90
35692;DHT22;26978;44.830;-0.674;2023-05-14T06:10:47;12.80;99.90
35692;DHT22;26978;44.830;-0.674;2023-05-14T06:13:13;12.90;99.90
35692;DHT22;26978;44.830;-0.674;2023-05-14T06:15:39;12.90;99.90
35692;DHT22;26978;44.830;-0.674;2023-05-14T06:18:04;13.00;99.90
35692;DHT22;26978;44.830;-0.674;2023-05-14T06:20:30;13.10;99.90
35692;DHT22;26978;44.830;-0.674;2023-05-14T06:22:55;13.20;99.90
35692;DHT22;26978;44.830;-0.674;2023-05-14T06:25:21;13.30;99.90
35692;DHT22;26978;44.830;-0.674;2023-05-14T06:27:47;13.40;99.90
35692;DHT22;26978;44.830;-0.674;2023-05-14T06:30:13;13.40;99.90
35692;DHT22;26978;44.830;-0.674;2023-05-14T06:32:39;13.50;99.90
35692;DHT22;26978;44.830;-0.674;2023-05-14T06:35:05;13.60;99.90
35692;DHT22;26978;44.830;-0.674;2023-05-14T06:37:30;13.70;99.90
35692;DHT22;26978;44.830;-0.674;2023-05-14T06:39:56;13.80;99.90
35692;DHT22;26978;44.830;-0.674;2023-05-14T06:42:22;13.80;99.90
35692;DHT22;26978;44.830;-0.674;2023-05-14T06:44:47;13.90;99.90
35692;DHT22;26978;44.830;-0.674;2023-05-14T06:47:13;13.90;99.90
35692;DHT22;26978;44.830;-0.674;2023-05-14T06:49:38;14.00;99.90
35692;DHT22;26978;44.830;-0.674;2023-05-14T06:52:04;14.10;99.90
35692;DHT22;26978;44.830;-0.674;2023-05-14T06:54:30;14.20;99.90
35692;DHT22;26978;44.830;-0.674;2023-05-14T06:56:56;14.30;99.90
35692;DHT22;26978;44.830;-0.674;2023-05-14T06:59:22;14.30;99.90
35692;DHT22;26978;44.830;-0.674;2023-05-14T07:01:48;14.40;99.90
35692;DHT22;26978;44.830;-0.674;2023-05-14T07:04:13;14.50;99.90
35692;DHT22;26978;44.830;-0.674;2023-05-14T07:06:39;14.50;99.90
35692;DHT22;26978;44.830;-0.674;2023-05-14T07:09:05;14.50;99.90
35692;DHT22;26978;44.830;-0.674;2023-05-14T07:11:31;14.50;99.90
35692;DHT22;26978;44.830;-0.674;2023-05-14T07:13:57;14.50;99.90
35692;DHT22;26978;44.830;-0.674;2023-05-14T07:16:24;14.60;99.90
35692;DHT22;26978;44.830;-0.674;2023-05-14T07:18:49;14.70;99.90
35692;DHT22;26978;44.830;-0.674;2023-05-14T07:21:15;14.70;99.90
35692;DHT22;26978;44.830;-0.674;2023-05-14T07:23:41;14.70;99.90
35692;DHT22;26978;44.830;-0.674;2023-05-14T07:26:06;14.80;99.90
35692;DHT22;26978;44.830;-0.674;2023-05-14T07:28:33;14.70;99.90
35692;DHT22;26978;44.830;-0.674;2023-05-14T07:30:58;14.70;99.90
35692;DHT22;26978;44.830;-0.674;2023-05-14T07:33:24;14.90;99.90
35692;DHT22;26978;44.830;-0.674;2023-05-14T07:35:51;15.00;99.90
35692;DHT22;26978;44.830;-0.674;2023-05-14T07:38:17;15.00;99.90
35692;DHT22;26978;44.830;-0.674;2023-05-14T07:40:43;15.10;99.90
35692;DHT22;26978;44.830;-0.674;2023-05-14T07:43:09;15.10;99.90
35692;DHT22;26978;44.830;-0.674;2023-05-14T07:45:36;15.10;99.90
35692;DHT22;26978;44.830;-0.674;2023-05-14T07:48:03;15.30;99.90
35692;DHT22;26978;44.830;-0.674;2023-05-14T07:50:28;15.30;99.90
35692;DHT22;26978;44.830;-0.674;2023-05-14T07:52:54;15.30;99.90
35692;DHT22;26978;44.830;-0.674;2023-05-14T07:55:19;15.40;99.90
35692;DHT22;26978;44.830;-0.674;2023-05-14T07:57:45;15.60;99.90
35692;DHT22;26978;44.830;-0.674;2023-05-14T08:00:14;15.70;99.90
35692;DHT22;26978;44.830;-0.674;2023-05-14T08:02:41;15.70;99.90
35692;DHT22;26978;44.830;-0.674;2023-05-14T08:05:07;15.80;99.90
35692;DHT22;26978;44.830;-0.674;2023-05-14T08:07:33;15.90;99.90
35692;DHT22;26978;44.830;-0.674;2023-05-14T08:09:59;15.90;99.90
35692;DHT22;26978;44.830;-0.674;2023-05-14T08:12:24;16.00;99.90
35692;DHT22;26978;44.830;-0.674;2023-05-14T08:14:51;16.00;99.90
35692;DHT22;26978;44.830;-0.674;2023-05-14T08:17:17;15.90;99.90
35692;DHT22;26978;44.830;-0.674;2023-05-14T08:19:43;16.10;99.90
35692;DHT22;26978;44.830;-0.674;2023-05-14T08:22:08;16.30;99.90
35692;DHT22;26978;44.830;-0.674;2023-05-14T08:24:34;16.40;99.90
35692;DHT22;26978;44.830;-0.674;2023-05-14T08:27:00;16.40;99.90
35692;DHT22;26978;44.830;-0.674;2023-05-14T08:29:26;16.40;99.90
35692;DHT22;26978;44.830;-0.674;2023-05-14T08:31:52;16.30;99.90
35692;DHT22;26978;44.830;-0.674;2023-05-14T08:34:18;16.40;99.90
35692;DHT22;26978;44.830;-0.674;2023-05-14T08:36:44;16.50;99.90
35692;DHT22;26978;44.830;-0.674;2023-05-14T08:39:09;16.70;99.90
35692;DHT22;26978;44.830;-0.674;2023-05-14T08:41:35;16.70;99.90
35692;DHT22;26978;44.830;-0.674;2023-05-14T08:44:06;16.80;99.90
35692;DHT22;26978;44.830;-0.674;2023-05-14T08:46:36;16.80;99.90
35692;DHT22;26978;44.830;-0.674;2023-05-14T08:49:26;16.60;99.90
35692;DHT22;26978;44.830;-0.674;2023-05-14T08:51:55;16.70;99.90
35692;DHT22;26978;44.830;-0.674;2023-05-14T08:54:20;16.80;99.90
35692;DHT22;26978;44.830;-0.674;2023-05-14T08:56:50;16.80;99.90
35692;DHT22;26978;44.830;-0.674;2023-05-14T08:59:16;16.80;99.90
35692;DHT22;26978;44.830;-0.674;2023-05-14T09:01:46;16.80;99.90
35692;DHT22;26978;44.830;-0.674;2023-05-14T09:04:14;17.10;99.90
35692;DHT22;26978;44.830;-0.674;2023-05-14T09:06:41;17.10;99.90
35692;DHT22;26978;44.830;-0.674;2023-05-14T09:09:08;17.30;99.90
35692;DHT22;26978;44.830;-0.674;2023-05-14T09:11:40;17.10;99.90
35692;DHT22;26978;44.830;-0.674;2023-05-14T09:14:05;17.00;99.90
35692;DHT22;26978;44.830;-0.674;2023-05-14T09:16:31;17.20;99.90
35692;DHT22;26978;44.830;-0.674;2023-05-14T09:18:57;17.30;99.90
35692;DHT22;26978;44.830;-0.674;2023-05-14T09:21:22;17.40;99.90
35692;DHT22;26978;44.830;-0.674;2023-05-14T09:23:52;17.60;99.90
35692;DHT22;26978;44.830;-0.674;2023-05-14T09:26:25;17.70;99.90
35692;DHT22;26978;44.830;-0.674;2023-05-14T09:28:56;17.60;99.90
35692;DHT22;26978;44.830;-0.674;2023-05-14T09:31:25;17.80;99.90
35692;DHT22;26978;44.830;-0.674;2023-05-14T09:33:51;17.70;99.90
35692;DHT22;26978;44.830;-0.674;2023-05-14T09:36:17;17.70;99.90
35692;DHT22;26978;44.830;-0.674;2023-05-14T09:38:43;17.80;99.90
35692;DHT22;26978;44.830;-0.674;2023-05-14T09:41:09;18.10;99.90
35692;DHT22;26978;44.830;-0.674;2023-05-14T09:43:35;18.20;99.90
35692;DHT22;26978;44.830;-0.674;2023-05-14T09:46:00;18.20;99.90
35692;DHT22;26978;44.830;-0.674;2023-05-14T09:48:26;18.30;99.90
35692;DHT22;26978;44.830;-0.674;2023-05-14T09:50:52;18.20;99.90
35692;DHT22;26978;44.830;-0.674;2023-05-14T09:53:18;18.30;99.90
35692;DHT22;26978;44.830;-0.674;2023-05-14T09:55:44;18.30;99.90
35692;DHT22;26978;44.830;-0.674;2023-05-14T09:58:10;18.20;99.90
35692;DHT22;26978;44.830;-0.674;2023-05-14T10:00:37;18.20;99.90
35692;DHT22;26978;44.830;-0.674;2023-05-14T10:03:06;18.10;99.90
35692;DHT22;26978;44.830;-0.674;2023-05-14T10:05:36;18.40;99.90
35692;DHT22;26978;44.830;-0.674;2023-05-14T10:08:34;18.50;99.90
35692;DHT22;26978;44.830;-0.674;2023-05-14T10:11:03;18.50;99.90
35692;DHT22;26978;44.830;-0.674;2023-05-14T10:13:36;18.60;99.90
35692;DHT22;26978;44.830;-0.674;2023-05-14T10:16:42;18.70;99.90
35692;DHT22;26978;44.830;-0.674;2023-05-14T10:19:10;18.90;99.90
35692;DHT22;26978;44.830;-0.674;2023-05-14T10:21:39;19.10;99.90
35692;DHT22;26978;44.830;-0.674;2023-05-14T10:24:06;19.30;99.90
35692;DHT22;26978;44.830;-0.674;2023-05-14T10:26:35;18.80;99.90
35692;DHT22;26978;44.830;-0.674;2023-05-14T10:29:04;18.50;99.90
35692;DHT22;26978;44.830;-0.674;2023-05-14T10:31:52;18.30;99.90
35692;DHT22;26978;44.830;-0.674;2023-05-14T10:34:38;18.30;99.90
35692;DHT22;26978;44.830;-0.674;2023-05-14T10:39:45;18.70;99.90
35692;DHT22;26978;44.830;-0.674;2023-05-14T10:42:27;18.90;99.90
35692;DHT22;26978;44.830;-0.674;2023-05-14T10:45:04;19.20;99.90
35692;DHT22;26978;44.830;-0.674;2023-05-14T10:47:44;19.30;99.90
35692;DHT22;26978;44.830;-0.674;2023-05-14T10:50:11;18.90;99.90
35692;DHT22;26978;44.830;-0.674;2023-05-14T10:52:42;18.90;99.90
35692;DHT22;26978;44.830;-0.674;2023-05-14T10:55:12;18.70;99.90
35692;DHT22;26978;44.830;-0.674;2023-05-14T10:57:39;19.00;99.90
35692;DHT22;26978;44.830;-0.674;2023-05-14T11:00:06;19.00;99.90
35692;DHT22;26978;44.830;-0.674;2023-05-14T11:02:37;19.40;99.90
35692;DHT22;26978;44.830;-0.674;2023-05-14T11:05:05;19.30;99.90
35692;DHT22;26978;44.830;-0.674;2023-05-14T11:07:40;19.40;99.90
35692;DHT22;26978;44.830;-0.674;2023-05-14T11:12:41;19.60;99.90
35692;DHT22;26978;44.830;-0.674;2023-05-14T11:15:09;19.60;99.90
35692;DHT22;26978;44.830;-0.674;2023-05-14T11:17:36;19.60;99.90
35692;DHT22;26978;44.830;-0.674;2023-05-14T11:20:03;19.80;99.90
35692;DHT22;26978;44.830;-0.674;2023-05-14T11:22:32;19.70;99.90
35692;DHT22;26978;44.830;-0.674;2023-05-14T11:24:58;19.70;99.90
35692;DHT22;26978;44.830;-0.674;2023-05-14T11:27:24;19.80;99.90
35692;DHT22;26978;44.830;-0.674;2023-05-14T11:29:50;19.90;99.90
35692;DHT22;26978;44.830;-0.674;2023-05-14T11:32:17;19.90;99.90
35692;DHT22;26978;44.830;-0.674;2023-05-14T11:34:43;19.90;99.90
35692;DHT22;26978;44.830;-0.674;2023-05-14T11:37:10;19.90;99.90
35692;DHT22;26978;44.830;-0.674;2023-05-14T11:39:37;20.00;99.90
35692;DHT22;26978;44.830;-0.674;2023-05-14T11:42:13;20.10;99.90
35692;DHT22;26978;44.830;-0.674;2023-05-14T11:44:41;20.10;99.90
35692;DHT22;26978;44.830;-0.674;2023-05-14T11:47:09;20.30;99.90
35692;DHT22;26978;44.830;-0.674;2023-05-14T11:49:35;20.50;99.90
35692;DHT22;26978;44.830;-0.674;2023-05-14T11:52:03;20.40;99.90
35692;DHT22;26978;44.830;-0.674;2023-05-14T11:54:33;20.50;99.90
35692;DHT22;26978;44.830;-0.674;2023-05-14T11:57:02;20.70;99.90
35692;DHT22;26978;44.830;-0.674;2023-05-14T11:59:31;20.50;98.40
35692;DHT22;26978;44.830;-0.674;2023-05-14T12:02:01;20.80;99.90
35692;DHT22;26978;44.830;-0.674;2023-05-14T12:04:28;21.20;96.80
35692;DHT22;26978;44.830;-0.674;2023-05-14T12:06:54;21.20;97.80
35692;DHT22;26978;44.830;-0.674;2023-05-14T12:09:22;21.10;97.00
35692;DHT22;26978;44.830;-0.674;2023-05-14T12:11:49;20.70;97.20
35692;DHT22;26978;44.830;-0.674;2023-05-14T12:14:20;20.80;98.70
35692;DHT22;26978;44.830;-0.674;2023-05-14T12:16:47;20.90;94.20
35692;DHT22;26978;44.830;-0.674;2023-05-14T12:19:17;21.00;93.40
35692;DHT22;26978;44.830;-0.674;2023-05-14T12:21:44;21.20;93.80
35692;DHT22;26978;44.830;-0.674;2023-05-14T12:24:15;21.70;96.10
35692;DHT22;26978;44.830;-0.674;2023-05-14T12:26:46;22.10;91.70
35692;DHT22;26978;44.830;-0.674;2023-05-14T12:29:12;22.00;90.80
35692;DHT22;26978;44.830;-0.674;2023-05-14T12:31:47;22.10;92.20
35692;DHT22;26978;44.830;-0.674;2023-05-14T12:34:14;22.20;87.20
35692;DHT22;26978;44.830;-0.674;2023-05-14T12:36:40;22.40;87.60
35692;DHT22;26978;44.830;-0.674;2023-05-14T12:39:05;22.50;86.00
35692;DHT22;26978;44.830;-0.674;2023-05-14T12:41:32;22.30;84.60
35692;DHT22;26978;44.830;-0.674;2023-05-14T12:43:58;22.50;83.40
35692;DHT22;26978;44.830;-0.674;2023-05-14T12:46:25;22.80;93.70
35692;DHT22;26978;44.830;-0.674;2023-05-14T12:48:52;22.40;81.50
35692;DHT22;26978;44.830;-0.674;2023-05-14T12:51:17;22.10;84.20
35692;DHT22;26978;44.830;-0.674;2023-05-14T12:53:43;21.40;90.90
35692;DHT22;26978;44.830;-0.674;2023-05-14T12:56:09;22.00;91.80
35692;DHT22;26978;44.830;-0.674;2023-05-14T12:58:35;22.30;86.90
35692;DHT22;26978;44.830;-0.674;2023-05-14T13:01:01;23.20;82.30
35692;DHT22;26978;44.830;-0.674;2023-05-14T13:03:26;23.50;83.50
35692;DHT22;26978;44.830;-0.674;2023-05-14T13:05:53;23.50;84.20
35692;DHT22;26978;44.830;-0.674;2023-05-14T13:08:20;22.20;83.40
35692;DHT22;26978;44.830;-0.674;2023-05-14T13:10:52;22.00;82.80
35692;DHT22;26978;44.830;-0.674;2023-05-14T13:13:18;21.80;79.90
35692;DHT22;26978;44.830;-0.674;2023-05-14T13:15:43;23.20;88.30
35692;DHT22;26978;44.830;-0.674;2023-05-14T13:18:11;24.20;87.20
35692;DHT22;26978;44.830;-0.674;2023-05-14T13:20:38;25.30;82.00
35692;DHT22;26978;44.830;-0.674;2023-05-14T13:23:04;24.20;67.60
35692;DHT22;26978;44.830;-0.674;2023-05-14T13:25:30;23.10;80.70
35692;DHT22;26978;44.830;-0.674;2023-05-14T13:27:55;24.30;74.40
35692;DHT22;26978;44.830;-0.674;2023-05-14T13:30:21;25.00;69.60
35692;DHT22;26978;44.830;-0.674;2023-05-14T13:32:46;23.00;73.10
35692;DHT22;26978;44.830;-0.674;2023-05-14T13:35:13;23.30;82.20
35692;DHT22;26978;44.830;-0.674;2023-05-14T13:37:38;24.10;86.00
35692;DHT22;26978;44.830;-0.674;2023-05-14T13:40:04;24.80;74.20
35692;DHT22;26978;44.830;-0.674;2023-05-14T13:42:34;24.50;73.00
35692;DHT22;26978;44.830;-0.674;2023-05-14T13:44:59;24.80;71.10
35692;DHT22;26978;44.830;-0.674;2023-05-14T13:47:26;24.70;69.60
35692;DHT22;26978;44.830;-0.674;2023-05-14T13:49:52;25.80;70.10
35692;DHT22;26978;44.830;-0.674;2023-05-14T13:52:18;25.70;62.90
35692;DHT22;26978;44.830;-0.674;2023-05-14T13:54:44;26.60;63.00
35692;DHT22;26978;44.830;-0.674;2023-05-14T13:57:10;25.90;60.40
35692;DHT22;26978;44.830;-0.674;2023-05-14T13:59:35;25.80;61.90
35692;DHT22;26978;44.830;-0.674;2023-05-14T14:02:01;25.70;59.90
35692;DHT22;26978;44.830;-0.674;2023-05-14T14:04:27;26.30;65.30
35692;DHT22;26978;44.830;-0.674;2023-05-14T14:06:56;26.60;61.50
35692;DHT22;26978;44.830;-0.674;2023-05-14T14:09:22;27.10;63.00
35692;DHT22;26978;44.830;-0.674;2023-05-14T14:11:47;25.60;58.00
35692;DHT22;26978;44.830;-0.674;2023-05-14T14:14:14;26.30;60.70
35692;DHT22;26978;44.830;-0.674;2023-05-14T14:16:39;26.80;60.00
35692;DHT22;26978;44.830;-0.674;2023-05-14T14:19:05;25.90;67.10
35692;DHT22;26978;44.830;-0.674;2023-05-14T14:21:31;24.00;71.40
35692;DHT22;26978;44.830;-0.674;2023-05-14T14:23:57;22.90;79.50
35692;DHT22;26978;44.830;-0.674;2023-05-14T14:26:23;23.60;80.90
35692;DHT22;26978;44.830;-0.674;2023-05-14T14:28:49;25.10;72.90
35692;DHT22;26978;44.830;-0.674;2023-05-14T14:31:15;25.60;70.20
35692;DHT22;26978;44.830;-0.674;2023-05-14T14:33:41;24.80;64.60
35692;DHT22;26978;44.830;-0.674;2023-05-14T14:36:07;23.80;70.20
35692;DHT22;26978;44.830;-0.674;2023-05-14T14:38:33;22.80;75.90
35692;DHT22;26978;44.830;-0.674;2023-05-14T14:40:59;23.40;78.20
35692;DHT22;26978;44.830;-0.674;2023-05-14T14:43:27;25.20;69.20
35692;DHT22;26978;44.830;-0.674;2023-05-14T14:45:53;26.00;60.70
35692;DHT22;26978;44.830;-0.674;2023-05-14T14:48:28;25.30;65.70
35692;DHT22;26978;44.830;-0.674;2023-05-14T14:50:56;25.10;65.70
35692;DHT22;26978;44.830;-0.674;2023-05-14T14:53:23;25.60;64.40
35692;DHT22;26978;44.830;-0.674;2023-05-14T14:55:49;26.60;70.30
35692;DHT22;26978;44.830;-0.674;2023-05-14T14:58:15;27.00;56.50
35692;DHT22;26978;44.830;-0.674;2023-05-14T15:00:40;26.10;60.10
35692;DHT22;26978;44.830;-0.674;2023-05-14T15:03:06;24.40;65.90
35692;DHT22;26978;44.830;-0.674;2023-05-14T15:05:34;23.30;74.00
35692;DHT22;26978;44.830;-0.674;2023-05-14T15:07:59;23.10;84.00
35692;DHT22;26978;44.830;-0.674;2023-05-14T15:10:27;23.70;74.00
35692;DHT22;26978;44.830;-0.674;2023-05-14T15:12:55;23.00;81.90
35692;DHT22;26978;44.830;-0.674;2023-05-14T15:15:21;22.60;86.50
35692;DHT22;26978;44.830;-0.674;2023-05-14T15:17:47;22.10;89.30
35692;DHT22;26978;44.830;-0.674;2023-05-14T15:20:13;21.50;91.70
35692;DHT22;26978;44.830;-0.674;2023-05-14T15:22:38;21.10;93.20
35692;DHT22;26978;44.830;-0.674;2023-05-14T15:25:04;20.90;95.00
35692;DHT22;26978;44.830;-0.674;2023-05-14T15:27:30;20.70;99.90